createdAt,value
2022-11-15T00:00:31.576Z,47.13
2022-11-15T00:03:35.360Z,49.92
2022-11-15T00:06:38.995Z,50.60
2022-11-15T00:09:45.994Z,53.20
2022-11-15T00:12:49.961Z,48.95
2022-11-15T00:15:53.340Z,46.58
2022-11-15T00:18:57.860Z,47.72
2022-11-15T00:22:01.580Z,49.05
2022-11-15T00:25:06.234Z,48.13
2022-11-15T00:28:10.108Z,53.50
2022-11-15T00:31:14.968Z,47.65
2022-11-15T00:34:18.810Z,48.33
2022-11-15T00:40:26.204Z,52.42
2022-11-15T00:43:30.738Z,49.80
2022-11-15T00:46:34.779Z,51.63
2022-11-15T00:49:38.903Z,52.42
2022-11-15T00:52:43.054Z,49.38
2022-11-15T00:55:47.019Z,50.90
2022-11-15T00:58:50.753Z,50.78
2022-11-15T01:01:54.632Z,52.92
2022-11-15T01:04:58.439Z,54.80
2022-11-15T01:08:02.553Z,45.42
2022-11-15T01:11:10.260Z,47.83
2022-11-15T01:14:14.321Z,47.38
2022-11-15T01:17:17.870Z,51.47
2022-11-15T01:20:21.825Z,47.35
2022-11-15T01:23:25.854Z,48.10
2022-11-15T01:26:29.622Z,37.92
2022-11-15T01:29:33.465Z,44.55
2022-11-15T01:35:40.699Z,43.30
2022-11-15T01:38:44.802Z,40.38
2022-11-15T01:41:48.250Z,43.75
2022-11-15T01:44:55.127Z,42.85
2022-11-15T01:47:58.757Z,46.67
2022-11-15T01:51:08.467Z,46.30
2022-11-15T01:54:16.736Z,47.72
2022-11-15T01:57:20.917Z,39.40
2022-11-15T02:00:25.034Z,44.30
2022-11-15T02:03:42.225Z,43.20
2022-11-15T02:06:48.638Z,43.47
2022-11-15T02:09:54.966Z,42.15
2022-11-15T02:13:00.922Z,47.33
2022-11-15T02:16:25.762Z,47.45
2022-11-15T02:19:40.134Z,45.08
2022-11-15T02:23:13.760Z,49.60
2022-11-15T02:26:44.674Z,41.95
2022-11-15T02:30:00.484Z,47.35
2022-11-15T02:33:22.924Z,43.13
2022-11-15T02:37:03.150Z,44.20
2022-11-15T02:40:25.268Z,44.40
2022-11-15T02:43:54.951Z,42.95
2022-11-15T02:47:14.540Z,39.97
2022-11-15T02:50:20.929Z,43.47
2022-11-15T02:53:25.861Z,43.78
2022-11-15T02:56:29.314Z,45.65
2022-11-15T02:59:55.088Z,42.72
2022-11-15T03:03:48.807Z,41.92
2022-11-15T03:07:12.056Z,46.92
2022-11-15T03:10:26.970Z,51.08
2022-11-15T03:13:39.298Z,45.38
2022-11-15T03:17:13.223Z,52.30
2022-11-15T03:20:18.622Z,44.53
2022-11-15T03:23:22.876Z,53.58
2022-11-15T03:26:28.511Z,43.80
2022-11-15T03:29:37.875Z,49.95
2022-11-15T03:32:47.742Z,49.83
2022-11-15T03:35:53.288Z,50.80
2022-11-15T03:39:02.798Z,53.55
2022-11-15T03:42:39.808Z,48.53
2022-11-15T03:46:01.484Z,49.72
2022-11-15T03:49:15.941Z,46.75
2022-11-15T03:52:21.424Z,53.58
2022-11-15T03:55:25.429Z,53.58
2022-11-15T03:58:29.153Z,51.70
2022-11-15T04:01:33.372Z,54.60
2022-11-15T04:04:37.439Z,55.63
2022-11-15T04:07:41.306Z,53.28
2022-11-15T04:10:44.986Z,61.38
2022-11-15T04:13:48.756Z,58.22
2022-11-15T04:16:52.722Z,57.05
2022-11-15T04:20:14.921Z,57.10
2022-11-15T04:23:39.747Z,62.75
2022-11-15T04:26:43.722Z,62.13
2022-11-15T04:29:47.758Z,65.05
2022-11-15T04:32:51.571Z,61.22
2022-11-15T04:36:14.202Z,60.17
2022-11-15T04:39:18.029Z,58.78
2022-11-15T04:42:21.881Z,60.20
2022-11-15T04:45:25.770Z,65.50
2022-11-15T04:48:33.091Z,62.13
2022-11-15T04:51:36.699Z,66.90
2022-11-15T04:54:42.487Z,68.47
2022-11-15T04:57:46.400Z,65.13
2022-11-15T05:00:50.248Z,64.40
2022-11-15T05:04:12.507Z,63.33
2022-11-15T05:07:16.360Z,70.88
2022-11-15T05:13:23.343Z,60.80
2022-11-15T05:16:27.176Z,62.45
2022-11-15T05:19:31.150Z,68.07
2022-11-15T05:25:38.294Z,65.30
2022-11-15T05:28:42.092Z,66.15
2022-11-15T05:31:46.071Z,67.88
2022-11-15T05:34:50.115Z,61.38
2022-11-15T05:37:53.794Z,65.68
2022-11-15T05:40:57.803Z,67.82
2022-11-15T05:44:04.103Z,68.70
2022-11-15T05:47:10.651Z,64.22
2022-11-15T05:50:17.267Z,62.65
2022-11-15T05:53:23.550Z,65.55
2022-11-15T05:56:27.423Z,74.70
2022-11-15T05:59:32.329Z,58.83
2022-11-15T06:02:36.279Z,57.90
2022-11-15T06:05:41.074Z,66.22
2022-11-15T06:08:44.815Z,67.85
2022-11-15T06:11:50.577Z,64.80
2022-11-15T06:14:54.247Z,68.22
2022-11-15T06:17:58.195Z,65.68
2022-11-15T06:21:02.492Z,61.00
2022-11-15T06:24:06.681Z,59.53
2022-11-15T06:27:11.799Z,71.93
2022-11-15T06:30:15.634Z,62.72
2022-11-15T06:33:22.353Z,63.33
2022-11-15T06:36:27.374Z,67.93
2022-11-15T06:39:31.402Z,77.30
2022-11-15T06:42:35.451Z,87.88
2022-11-15T06:45:39.644Z,68.03
2022-11-15T06:48:44.472Z,70.72
2022-11-15T06:51:48.844Z,61.05
2022-11-15T06:54:55.151Z,59.42
2022-11-15T07:01:40.887Z,56.63
2022-11-15T07:04:44.938Z,57.58
2022-11-15T07:07:58.261Z,52.83
2022-11-15T07:11:04.723Z,56.75
2022-11-15T07:14:11.105Z,51.67
2022-11-15T07:17:17.814Z,57.85
2022-11-15T07:20:46.626Z,59.25
2022-11-15T07:23:54.004Z,56.97
2022-11-15T07:26:57.910Z,53.03
2022-11-15T07:30:04.260Z,55.38
2022-11-15T07:33:08.348Z,54.40
2022-11-15T07:36:13.582Z,51.10
2022-11-15T07:39:17.543Z,51.17
2022-11-15T07:42:42.455Z,56.97
2022-11-15T07:45:57.547Z,58.72
2022-11-15T08:03:06.342Z,53.30
2022-11-15T08:06:25.200Z,51.95
2022-11-15T08:09:28.766Z,57.30
2022-11-15T08:12:35.419Z,57.33
2022-11-15T08:15:40.130Z,53.30
2022-11-15T08:18:43.643Z,50.92
2022-11-15T08:21:59.891Z,53.80
2022-11-15T08:25:07.337Z,50.70
2022-11-15T08:28:12.137Z,48.47
2022-11-15T08:31:18.706Z,52.42
2022-11-15T08:34:22.859Z,48.95
2022-11-15T08:37:30.839Z,54.92
2022-11-15T08:40:35.299Z,54.50
2022-11-15T08:43:48.419Z,46.00
2022-11-15T08:47:24.607Z,43.15
2022-11-15T08:50:29.912Z,42.83
2022-11-15T08:53:35.624Z,43.03
2022-11-15T09:00:12.180Z,43.50
2022-11-15T09:03:55.982Z,47.00
2022-11-15T09:07:02.789Z,46.22
2022-11-15T09:10:07.691Z,42.88
2022-11-15T09:13:11.335Z,42.83
2022-11-15T09:16:15.704Z,40.08
2022-11-15T09:19:19.963Z,42.25
2022-11-15T09:22:23.850Z,33.22
2022-11-15T09:25:50.387Z,32.92
2022-11-15T09:28:55.461Z,26.80
2022-11-15T09:32:01.215Z,28.90
2022-11-15T09:35:06.171Z,26.25
2022-11-15T09:38:10.633Z,27.45
2022-11-15T09:41:44.269Z,26.95
2022-11-15T09:45:14.485Z,26.08
2022-11-15T09:48:52.245Z,26.65
2022-11-15T09:52:03.736Z,28.35
2022-11-15T09:54:55.079Z,26.60
2022-11-15T09:57:54.955Z,23.55
2022-11-15T10:00:47.672Z,23.83
2022-11-15T10:03:42.514Z,26.73
2022-11-15T10:06:27.887Z,25.33
2022-11-15T10:09:17.934Z,26.70
2022-11-15T10:12:07.862Z,26.10
2022-11-15T10:15:12.957Z,24.95
2022-11-15T10:18:07.396Z,27.38
2022-11-15T10:20:59.653Z,29.80
2022-11-15T10:23:44.683Z,30.48
2022-11-15T10:26:29.642Z,29.75
2022-11-15T10:29:27.097Z,28.20
2022-11-15T10:32:14.263Z,29.95
2022-11-15T10:35:01.342Z,28.20
2022-11-15T10:37:46.380Z,30.10
2022-11-15T10:40:32.510Z,32.47
2022-11-15T10:43:19.880Z,31.27
2022-11-15T10:46:46.161Z,32.63
2022-11-15T10:49:35.436Z,31.52
2022-11-15T10:52:22.724Z,32.28
2022-11-15T10:55:17.107Z,29.02
2022-11-15T10:58:06.376Z,27.70
2022-11-15T11:00:54.007Z,30.92
2022-11-15T11:03:43.839Z,30.45
2022-11-15T11:06:30.441Z,27.23
2022-11-15T11:09:24.338Z,27.98
2022-11-15T11:12:34.994Z,30.80
2022-11-15T11:15:29.812Z,28.17
2022-11-15T11:19:01.349Z,28.85
2022-11-15T11:22:02.642Z,30.50
2022-11-15T11:25:52.568Z,26.52
2022-11-15T11:29:28.778Z,29.20
2022-11-15T11:32:52.531Z,23.98
2022-11-15T11:36:21.390Z,24.88
2022-11-15T11:39:22.306Z,25.88
2022-11-15T11:47:09.696Z,29.83
2022-11-15T11:50:29.973Z,28.35
2022-11-15T11:53:40.421Z,27.40
2022-11-15T11:56:37.440Z,25.77
2022-11-15T12:02:57.655Z,24.85
2022-11-15T12:06:07.048Z,24.85
2022-11-15T12:11:55.422Z,27.40
2022-11-15T12:14:59.458Z,28.60
2022-11-15T12:17:46.711Z,30.92
2022-11-15T12:20:38.298Z,31.90
2022-11-15T12:23:31.629Z,24.98
2022-11-15T12:26:29.047Z,30.92
2022-11-15T12:29:28.421Z,32.38
2022-11-15T12:32:31.251Z,32.83
2022-11-15T12:35:38.099Z,33.05
2022-11-15T12:38:49.121Z,32.22
2022-11-15T12:41:37.945Z,30.50
2022-11-15T12:44:32.287Z,32.50
2022-11-15T12:47:26.548Z,28.48
2022-11-15T12:50:14.287Z,30.58
2022-11-15T12:53:27.975Z,32.40
2022-11-15T12:56:12.840Z,29.92
2022-11-15T12:59:02.682Z,30.20
2022-11-15T13:01:48.170Z,31.40
2022-11-15T13:04:33.100Z,33.35
2022-11-15T13:07:51.262Z,30.98
2022-11-15T13:10:36.307Z,30.35
2022-11-15T13:13:44.563Z,33.65
2022-11-15T13:16:29.499Z,33.70
2022-11-15T13:19:15.019Z,32.53
2022-11-15T13:22:18.162Z,35.17
2022-11-15T13:25:06.728Z,34.33
2022-11-15T13:27:52.166Z,29.60
2022-11-15T13:30:38.199Z,29.17
2022-11-15T13:33:36.393Z,29.85
2022-11-15T13:36:26.183Z,27.63
2022-11-15T13:39:34.518Z,34.25
2022-11-15T13:42:21.392Z,27.92
2022-11-15T13:45:15.113Z,32.25
2022-11-15T13:48:03.482Z,30.88
2022-11-15T13:50:48.344Z,32.22
2022-11-15T13:53:35.595Z,28.45
2022-11-15T13:56:21.187Z,31.33
2022-11-15T13:59:27.280Z,32.42
2022-11-15T14:02:18.370Z,30.73
2022-11-15T14:05:06.293Z,31.70
2022-11-15T14:08:04.454Z,32.83
2022-11-15T14:11:07.511Z,33.47
2022-11-15T14:14:08.044Z,32.55
2022-11-15T14:16:55.540Z,36.45
2022-11-15T14:19:40.598Z,34.55
2022-11-15T14:22:28.595Z,35.00
